createdAt,value
2022-08-07T00:02:40.681Z,57.01
2022-08-07T00:05:05.811Z,56.92
2022-08-07T00:07:40.873Z,56.79
2022-08-07T00:10:26.294Z,57.06
2022-08-07T00:13:23.899Z,57.67
2022-08-07T00:16:21.598Z,58.77
2022-08-07T00:19:21.784Z,59.57
2022-08-07T00:22:02.342Z,59.67
2022-08-07T00:24:31.761Z,59.24
2022-08-07T00:27:07.316Z,60.21
2022-08-07T00:32:53.041Z,59.98
2022-08-07T00:35:23.020Z,60.86
2022-08-07T00:38:16.215Z,61.26
2022-08-07T00:41:00.066Z,60.85
2022-08-07T00:44:00.315Z,60.84
2022-08-07T00:46:15.533Z,60.89
2022-08-07T00:48:43.352Z,60.76
2022-08-07T00:51:11.180Z,60.96
2022-08-07T00:53:55.332Z,60.64
2022-08-07T00:56:29.948Z,61.52
2022-08-07T00:59:35.932Z,61.49
2022-08-07T01:02:14.214Z,61.45
2022-08-07T01:04:58.186Z,61.47
2022-08-07T01:07:29.779Z,61.59
2022-08-07T01:10:06.803Z,61.45
2022-08-07T01:12:53.715Z,61.71
2022-08-07T01:15:35.752Z,61.22
2022-08-07T01:18:17.202Z,61.77
2022-08-07T01:21:22.875Z,62.14
2022-08-07T01:24:21.688Z,61.94
2022-08-07T01:26:54.158Z,61.83
2022-08-07T01:29:27.962Z,61.66
2022-08-07T01:32:23.398Z,61.31
2022-08-07T01:34:56.085Z,61.74
2022-08-07T01:37:27.047Z,61.54
2022-08-07T01:40:02.706Z,61.35
2022-08-07T01:42:38.077Z,61.42
2022-08-07T01:45:18.387Z,61.42
2022-08-07T01:48:18.978Z,61.56
2022-08-07T01:54:08.987Z,62.24
2022-08-07T01:56:59.935Z,62.26
2022-08-07T02:00:04.598Z,62.05
2022-08-07T02:03:12.463Z,62.61
2022-08-07T02:05:59.315Z,63.02
2022-08-07T02:08:38.265Z,62.59
2022-08-07T02:12:03.939Z,62.81
2022-08-07T02:14:36.217Z,62.48
2022-08-07T02:18:03.749Z,62.33
2022-08-07T02:20:34.126Z,62.06
2022-08-07T02:23:06.517Z,61.95
2022-08-07T02:26:30.952Z,62.09
2022-08-07T02:28:29.659Z,61.78
2022-08-07T02:31:10.272Z,62.03
2022-08-07T02:34:18.094Z,61.91
2022-08-07T02:36:52.438Z,61.66
2022-08-07T02:39:43.934Z,62.07
2022-08-07T02:42:37.601Z,61.28
2022-08-07T02:46:00.630Z,61.67
2022-08-07T02:47:57.194Z,61.39
2022-08-07T02:50:32.378Z,60.91
2022-08-07T02:53:15.714Z,60.78
2022-08-07T02:56:03.977Z,60.77
2022-08-07T02:58:39.640Z,60.52
2022-08-07T03:01:19.042Z,60.21
2022-08-07T03:04:12.494Z,60.13
2022-08-07T03:06:44.569Z,60.22
2022-08-07T03:09:43.541Z,60.14
2022-08-07T03:12:06.584Z,60.09
2022-08-07T03:14:39.852Z,59.70
2022-08-07T03:20:02.898Z,59.81
2022-08-07T03:22:55.538Z,59.72
2022-08-07T03:25:24.212Z,59.97
2022-08-07T03:28:09.797Z,60.29
2022-08-07T03:30:48.119Z,60.41
2022-08-07T03:33:17.871Z,60.21
2022-08-07T03:35:50.452Z,60.50
2022-08-07T03:38:29.553Z,60.59
2022-08-07T03:41:02.498Z,60.02
2022-08-07T03:43:57.673Z,60.39
2022-08-07T03:46:31.775Z,60.39
2022-08-07T03:49:03.529Z,60.31
2022-08-07T03:52:02.004Z,60.46
2022-08-07T03:54:36.412Z,60.35
2022-08-07T03:58:08.905Z,60.62
2022-08-07T04:00:11.703Z,60.52
2022-08-07T04:02:50.273Z,60.26
2022-08-07T04:05:39.608Z,60.25
2022-08-07T04:08:12.841Z,60.84
2022-08-07T04:12:26.775Z,60.98
2022-08-07T04:14:37.763Z,60.54
2022-08-07T04:18:31.043Z,60.63
2022-08-07T04:20:21.944Z,61.36
2022-08-07T04:23:01.315Z,61.42
2022-08-07T04:25:39.412Z,61.30
2022-08-07T04:28:14.727Z,60.80
2022-08-07T04:31:09.349Z,60.73
2022-08-07T04:33:55.036Z,60.94
2022-08-07T04:36:26.455Z,61.27
2022-08-07T04:38:55.900Z,60.99
2022-08-07T04:41:25.858Z,61.43
2022-08-07T04:44:14.553Z,61.73
2022-08-07T04:47:57.021Z,61.46
2022-08-07T04:50:32.461Z,62.48
2022-08-07T04:53:27.794Z,61.55
2022-08-07T04:58:14.296Z,61.62
2022-08-07T05:00:09.733Z,62.34
2022-08-07T05:02:23.732Z,62.52
2022-08-07T05:05:52.617Z,62.48
2022-08-07T05:08:13.136Z,62.58
2022-08-07T05:11:58.109Z,62.94
2022-08-07T05:14:58.999Z,62.99
2022-08-07T05:18:08.773Z,63.59
2022-08-07T05:20:46.548Z,63.26
2022-08-07T05:23:30.140Z,63.10
2022-08-07T05:26:13.564Z,62.96
2022-08-07T05:29:22.609Z,63.18
2022-08-07T05:31:52.932Z,63.45
2022-08-07T05:34:50.354Z,63.36
2022-08-07T05:37:43.854Z,64.04
2022-08-07T05:40:17.634Z,62.91
2022-08-07T05:42:55.803Z,63.07
2022-08-07T05:45:46.565Z,62.78
2022-08-07T05:48:15.507Z,63.04
2022-08-07T05:50:48.402Z,63.79
2022-08-07T05:54:13.097Z,64.72
2022-08-07T05:56:12.530Z,64.65
2022-08-07T05:58:49.417Z,65.44
2022-08-07T06:01:35.820Z,65.43
2022-08-07T06:04:08.822Z,64.65
2022-08-07T06:06:46.423Z,64.37
2022-08-07T06:09:17.802Z,64.00
2022-08-07T06:12:41.679Z,64.42
2022-08-07T06:15:16.332Z,63.62
2022-08-07T06:17:55.062Z,63.23
2022-08-07T06:20:49.703Z,63.17
2022-08-07T06:23:25.169Z,63.73
2022-08-07T06:26:05.657Z,64.34
2022-08-07T06:29:20.924Z,65.35
2022-08-07T06:32:17.866Z,64.76
2022-08-07T06:34:47.010Z,66.24
2022-08-07T06:37:43.572Z,66.11
2022-08-07T06:40:17.916Z,66.89
2022-08-07T06:42:52.937Z,67.58
2022-08-07T06:48:36.772Z,67.61
2022-08-07T06:51:33.427Z,65.23
2022-08-07T06:55:28.486Z,65.92
2022-08-07T06:57:39.408Z,64.04
2022-08-07T07:00:17.678Z,63.20
2022-08-07T07:02:57.356Z,63.02
2022-08-07T07:06:02.816Z,63.59
2022-08-07T07:08:18.508Z,63.69
2022-08-07T07:10:57.019Z,61.10
2022-08-07T07:13:58.600Z,62.36
2022-08-07T07:16:45.265Z,64.38
2022-08-07T07:20:32.985Z,61.80
2022-08-07T07:24:08.871Z,61.42
2022-08-07T07:26:35.302Z,60.62
2022-08-07T07:33:24.165Z,61.39
2022-08-07T07:36:12.798Z,61.29
2022-08-07T07:38:43.536Z,60.00
2022-08-07T07:41:17.002Z,60.15
2022-08-07T07:44:17.826Z,60.42
2022-08-07T07:46:55.813Z,60.29
2022-08-07T07:50:34.754Z,60.08
2022-08-07T07:52:50.153Z,62.24
2022-08-07T07:55:23.022Z,60.82
2022-08-07T07:57:58.157Z,60.57
2022-08-07T08:00:31.270Z,59.16
2022-08-07T08:03:08.805Z,59.52
2022-08-07T08:05:50.807Z,57.77
2022-08-07T08:08:35.584Z,56.08
2022-08-07T08:11:59.492Z,56.45
2022-08-07T08:14:24.620Z,55.36
2022-08-07T08:16:56.406Z,56.24
2022-08-07T08:20:19.826Z,55.01
2022-08-07T08:23:14.245Z,56.15
2022-08-07T08:26:07.205Z,58.02
2022-08-07T08:28:45.276Z,56.33
2022-08-07T08:31:58.956Z,54.93
2022-08-07T08:37:59.480Z,54.15
2022-08-07T08:40:02.321Z,52.37
2022-08-07T08:42:58.327Z,52.92
2022-08-07T08:46:06.890Z,52.07
2022-08-07T08:48:50.895Z,51.96
2022-08-07T08:51:49.409Z,51.59
2022-08-07T08:54:35.489Z,51.65
2022-08-07T08:57:37.769Z,53.41
2022-08-07T09:00:10.593Z,52.58
2022-08-07T09:02:52.545Z,53.76
2022-08-07T09:05:37.325Z,53.20
2022-08-07T09:08:29.160Z,53.18
2022-08-07T09:14:20.653Z,54.19
2022-08-07T09:17:59.739Z,53.45
2022-08-07T09:20:58.074Z,52.69
2022-08-07T09:24:33.686Z,53.20
2022-08-07T09:27:04.533Z,49.91
2022-08-07T09:30:28.097Z,50.67
2022-08-07T09:33:52.714Z,50.42
2022-08-07T09:37:05.486Z,49.12
2022-08-07T09:44:03.485Z,49.35
2022-08-07T09:47:25.318Z,48.66
2022-08-07T09:50:26.410Z,49.55
2022-08-07T09:53:05.015Z,50.00
2022-08-07T09:56:05.394Z,50.92
2022-08-07T09:58:55.410Z,50.66
2022-08-07T10:01:50.403Z,51.84
2022-08-07T10:05:12.714Z,52.27
2022-08-07T10:08:32.744Z,52.55
2022-08-07T10:12:01.940Z,52.88
2022-08-07T10:14:54.982Z,53.28
2022-08-07T10:18:20.679Z,52.32
2022-08-07T10:20:54.762Z,53.29
2022-08-07T10:24:05.252Z,52.02
2022-08-07T10:27:06.678Z,54.81
2022-08-07T10:30:27.486Z,54.61
2022-08-07T10:33:14.995Z,53.69
2022-08-07T10:36:29.437Z,54.36
2022-08-07T10:40:06.101Z,52.40
2022-08-07T10:42:43.330Z,52.39
2022-08-07T10:45:44.810Z,52.17
2022-08-07T10:48:48.939Z,53.93
2022-08-07T10:51:57.687Z,52.86
2022-08-07T10:54:22.410Z,52.30
2022-08-07T11:00:39.389Z,52.16
2022-08-07T11:03:28.107Z,53.11
2022-08-07T11:06:26.900Z,55.00
2022-08-07T11:09:02.432Z,56.73
2022-08-07T11:11:46.315Z,56.89
2022-08-07T11:14:57.067Z,56.53
2022-08-07T11:18:04.578Z,57.15
2022-08-07T11:20:42.748Z,57.22
2022-08-07T11:23:36.281Z,58.28
2022-08-07T11:26:25.145Z,56.20
2022-08-07T11:33:54.115Z,59.23
2022-08-07T11:36:50.546Z,58.10
2022-08-07T11:39:24.442Z,57.87
2022-08-07T11:42:18.716Z,56.94
2022-08-07T11:45:12.401Z,57.38
2022-08-07T11:47:56.587Z,56.64
2022-08-07T11:50:44.556Z,57.73
2022-08-07T11:54:00.668Z,58.14
2022-08-07T11:56:56.780Z,56.27
2022-08-07T12:00:10.249Z,55.48
2022-08-07T12:03:07.085Z,53.84
2022-08-07T12:06:39.307Z,55.67
2022-08-07T12:09:23.583Z,56.08
2022-08-07T12:12:20.376Z,56.78
2022-08-07T12:15:00.276Z,56.83
2022-08-07T12:18:29.784Z,57.18
2022-08-07T12:21:55.739Z,60.47
2022-08-07T12:26:05.653Z,59.77
2022-08-07T12:32:12.807Z,53.98
2022-08-07T12:34:49.330Z,54.32
2022-08-07T12:37:23.419Z,55.20
2022-08-07T12:39:58.923Z,53.59
2022-08-07T12:42:32.010Z,55.27
2022-08-07T12:45:06.578Z,52.55
2022-08-07T12:50:58.999Z,53.64
2022-08-07T12:54:03.090Z,54.84
2022-08-07T12:56:51.094Z,50.30
2022-08-07T12:59:30.450Z,53.49
2022-08-07T13:02:41.311Z,53.27
2022-08-07T13:06:02.553Z,51.17
2022-08-07T13:08:43.385Z,50.96
2022-08-07T13:12:01.989Z,47.68
2022-08-07T13:14:55.293Z,48.64
2022-08-07T13:17:40.075Z,48.29
2022-08-07T13:20:46.638Z,49.43
2022-08-07T13:24:00.947Z,50.35
2022-08-07T13:26:54.282Z,50.51
2022-08-07T13:29:54.749Z,52.41
2022-08-07T13:34:30.715Z,52.75
2022-08-07T13:36:42.622Z,53.83
2022-08-07T13:39:49.802Z,51.73
2022-08-07T13:42:14.730Z,52.69
2022-08-07T13:44:55.283Z,50.26
2022-08-07T13:48:05.998Z,49.23
2022-08-07T13:50:33.400Z,50.57
2022-08-07T13:53:04.334Z,50.43
2022-08-07T13:55:37.086Z,51.51
2022-08-07T13:58:32.536Z,51.39
2022-08-07T14:01:33.243Z,51.36
2022-08-07T14:04:21.472Z,49.99
2022-08-07T14:06:52.793Z,48.88
2022-08-07T14:10:12.351Z,49.85
2022-08-07T14:13:03.745Z,47.79
2022-08-07T14:15:43.709Z,49.13
2022-08-07T14:18:29.058Z,49.25
2022-08-07T14:22:03.013Z,48.59
2022-08-07T14:24:41.357Z,49.37
2022-08-07T14:28:11.705Z,49.63
2022-08-07T14:30:57.549Z,50.37
2022-08-07T14:33:26.810Z,50.68
2022-08-07T14:36:15.922Z,49.84
2022-08-07T14:38:50.611Z,50.98
2022-08-07T14:41:34.184Z,49.97
2022-08-07T14:48:08.002Z,51.75
2022-08-07T14:50:44.411Z,53.71
2022-08-07T14:53:13.775Z,54.64
2022-08-07T14:55:55.507Z,55.91
2022-08-07T14:58:34.934Z,55.49
2022-08-07T15:01:42.677Z,55.88
2022-08-07T15:04:53.162Z,56.21
2022-08-07T15:07:51.114Z,57.05
2022-08-07T15:10:26.689Z,57.15
2022-08-07T15:13:26.729Z,57.79
2022-08-07T15:16:11.110Z,58.16
2022-08-07T15:18:47.646Z,58.40
2022-08-07T15:21:43.920Z,57.73
2022-08-07T15:25:23.724Z,55.98
2022-08-07T15:28:43.156Z,55.95
2022-08-07T15:32:00.657Z,56.25
2022-08-07T15:34:50.148Z,55.72
2022-08-07T15:38:17.962Z,55.34
2022-08-07T15:44:13.370Z,55.24
2022-08-07T15:47:59.837Z,56.44
2022-08-07T15:51:08.773Z,56.18
2022-08-07T15:53:51.996Z,55.58
2022-08-07T15:56:48.164Z,55.87
2022-08-07T15:59:17.868Z,56.08
2022-08-07T16:02:01.948Z,55.99
2022-08-07T16:04:33.945Z,55.30
2022-08-07T16:08:28.424Z,55.21
2022-08-07T16:10:12.867Z,55.21
2022-08-07T16:13:01.024Z,55.68
2022-08-07T16:15:55.526Z,55.67
2022-08-07T16:18:57.584Z,55.21
2022-08-07T16:22:30.167Z,54.84
2022-08-07T16:25:52.201Z,55.06
2022-08-07T16:32:01.870Z,55.53
2022-08-07T16:35:58.766Z,55.48
2022-08-07T16:39:03.080Z,55.65
2022-08-07T16:41:54.193Z,55.85
2022-08-07T16:45:14.302Z,55.81
2022-08-07T16:47:57.293Z,55.70
2022-08-07T16:51:21.575Z,55.53
2022-08-07T16:54:10.762Z,55.13
2022-08-07T16:56:43.900Z,55.51
2022-08-07T16:59:46.575Z,55.15
2022-08-07T17:02:55.301Z,56.02
2022-08-07T17:06:50.193Z,55.38
2022-08-07T17:10:06.974Z,55.16
2022-08-07T17:12:47.547Z,54.18
2022-08-07T17:15:15.560Z,54.79
2022-08-07T17:18:18.631Z,55.25
2022-08-07T17:20:47.985Z,54.48
2022-08-07T17:23:32.572Z,54.56
2022-08-07T17:26:50.142Z,54.16
2022-08-07T17:30:14.176Z,54.05
2022-08-07T17:34:15.257Z,54.33
2022-08-07T17:36:20.378Z,53.61
2022-08-07T17:39:10.528Z,53.80
2022-08-07T17:44:58.621Z,54.28
2022-08-07T17:48:31.257Z,54.50
2022-08-07T17:51:21.529Z,54.66
2022-08-07T17:54:39.603Z,54.17
2022-08-07T17:57:20.349Z,54.39
2022-08-07T17:59:53.136Z,54.24
2022-08-07T18:02:53.795Z,54.66
2022-08-07T18:05:28.165Z,55.11
2022-08-07T18:08:35.438Z,55.52
2022-08-07T18:14:23.782Z,55.79
2022-08-07T18:17:05.171Z,55.75
2022-08-07T18:22:49.622Z,56.12
2022-08-07T18:25:40.723Z,56.16
2022-08-07T18:28:35.691Z,56.34
2022-08-07T18:31:33.956Z,56.25
2022-08-07T18:41:20.618Z,56.66
2022-08-07T18:44:22.754Z,57.03
2022-08-07T18:47:08.227Z,57.34
2022-08-07T18:50:30.849Z,57.60
2022-08-07T18:53:36.963Z,58.23
2022-08-07T18:56:57.905Z,57.74
2022-08-07T18:59:47.630Z,57.50
2022-08-07T19:03:03.763Z,57.44
2022-08-07T19:06:01.922Z,57.99
2022-08-07T19:08:46.491Z,57.77
2022-08-07T19:14:20.075Z,57.62
2022-08-07T19:17:59.463Z,57.97
2022-08-07T19:21:09.898Z,57.94
2022-08-07T19:23:58.151Z,58.01
2022-08-07T19:27:01.910Z,57.93
2022-08-07T19:31:05.544Z,58.60
2022-08-07T19:32:46.350Z,58.68
2022-08-07T19:35:19.557Z,58.83
2022-08-07T19:37:58.450Z,59.18
2022-08-07T19:40:31.846Z,59.31
2022-08-07T19:43:12.732Z,59.75
2022-08-07T19:46:05.077Z,59.61
2022-08-07T19:48:53.825Z,59.06
2022-08-07T19:51:52.269Z,59.37
2022-08-07T19:54:33.414Z,58.99
2022-08-07T19:58:01.029Z,59.07
2022-08-07T19:59:59.952Z,59.59
2022-08-07T20:03:33.854Z,59.73
2022-08-07T20:06:25.002Z,59.99
2022-08-07T20:09:01.887Z,60.27
2022-08-07T20:12:22.976Z,60.31
2022-08-07T20:14:54.019Z,60.20
2022-08-07T20:23:52.016Z,60.12
2022-08-07T20:26:29.901Z,60.33
2022-08-07T20:32:55.205Z,60.88
2022-08-07T20:35:34.825Z,60.57
2022-08-07T20:39:30.379Z,60.47
2022-08-07T20:41:59.191Z,60.35
2022-08-07T20:44:49.313Z,60.48
2022-08-07T20:47:56.895Z,60.22
2022-08-07T20:50:30.559Z,60.26
2022-08-07T20:53:25.857Z,60.12
2022-08-07T20:56:11.534Z,60.14
2022-08-07T20:58:43.491Z,60.26
2022-08-07T21:01:45.712Z,60.57
2022-08-07T21:04:28.148Z,60.90
2022-08-07T21:07:04.325Z,61.02
2022-08-07T21:10:11.569Z,61.11
2022-08-07T21:12:42.060Z,61.29
2022-08-07T21:15:21.252Z,61.20
2022-08-07T21:18:40.527Z,61.27
2022-08-07T21:21:09.770Z,61.79
2022-08-07T21:24:02.452Z,62.01
2022-08-07T21:26:43.989Z,61.66
2022-08-07T21:29:33.483Z,61.85
2022-08-07T21:32:43.660Z,61.60
2022-08-07T21:36:05.103Z,61.88
2022-08-07T21:39:00.408Z,61.93
2022-08-07T21:41:52.448Z,62.03
2022-08-07T21:45:41.981Z,62.07
2022-08-07T21:48:27.896Z,61.97
2022-08-07T21:51:51.469Z,61.91
2022-08-07T21:54:34.415Z,61.43
2022-08-07T21:57:31.229Z,61.58
2022-08-07T22:00:22.333Z,62.00
2022-08-07T22:03:58.839Z,61.63
2022-08-07T22:06:34.049Z,61.50
2022-08-07T22:09:34.833Z,61.26
2022-08-07T22:12:53.084Z,61.00
2022-08-07T22:16:44.089Z,61.83
2022-08-07T22:19:29.664Z,61.84
2022-08-07T22:22:55.367Z,61.83
2022-08-07T22:25:37.083Z,61.56
2022-08-07T22:28:37.461Z,61.47
2022-08-07T22:34:53.046Z,61.14
2022-08-07T22:38:03.231Z,61.45
2022-08-07T22:42:03.751Z,61.44
2022-08-07T22:44:21.867Z,61.11
2022-08-07T22:47:28.007Z,61.56
2022-08-07T22:50:34.977Z,61.24
2022-08-07T22:54:06.606Z,61.33
2022-08-07T22:56:48.286Z,60.99
2022-08-07T22:59:49.705Z,61.01
2022-08-07T23:02:27.365Z,60.64
2022-08-07T23:06:07.812Z,60.49
2022-08-07T23:08:51.597Z,61.01
2022-08-07T23:11:59.103Z,60.79
2022-08-07T23:14:41.077Z,60.29
2022-08-07T23:21:16.465Z,60.40
2022-08-07T23:24:12.057Z,60.40
2022-08-07T23:26:57.131Z,59.93
2022-08-07T23:30:37.498Z,60.28
2022-08-07T23:34:22.816Z,59.87
2022-08-07T23:37:19.627Z,60.44
2022-08-07T23:40:13.112Z,60.62
2022-08-07T23:43:16.788Z,60.18
2022-08-07T23:46:33.821Z,60.60
2022-08-07T23:49:50.617Z,60.48
2022-08-07T23:53:01.266Z,60.77
2022-08-07T23:55:55.860Z,60.77
2022-08-07T23:58:42.232Z,60.93
